createdAt,value
2022-08-19T00:00:22.941Z,40.45
2022-08-19T00:03:43.948Z,40.44
2022-08-19T00:07:05.948Z,40.50
2022-08-19T00:10:28.961Z,40.91
2022-08-19T00:13:49.978Z,40.93
2022-08-19T00:17:10.965Z,41.05
2022-08-19T00:20:33.948Z,41.04
2022-08-19T00:23:55.964Z,41.04
2022-08-19T00:27:26.511Z,41.08
2022-08-19T00:30:47.956Z,41.38
2022-08-19T00:34:10.958Z,41.28
2022-08-19T00:37:32.976Z,41.37
2022-08-19T00:40:57.945Z,41.60
2022-08-19T00:44:27.963Z,41.69
2022-08-19T00:47:48.952Z,41.84
2022-08-19T00:51:09.967Z,41.77
2022-08-19T00:54:31.954Z,41.97
2022-08-19T00:57:55.976Z,41.97
2022-08-19T01:01:19.057Z,42.05
2022-08-19T01:04:39.968Z,41.95
2022-08-19T01:08:01.991Z,42.03
2022-08-19T01:11:22.971Z,42.32
2022-08-19T01:14:44.970Z,42.37
2022-08-19T01:18:07.974Z,42.31
2022-08-19T01:21:44.989Z,42.46
2022-08-19T01:25:06.986Z,42.52
2022-08-19T01:28:42.299Z,42.71
2022-08-19T01:32:02.964Z,42.85
2022-08-19T01:35:25.993Z,43.10
2022-08-19T01:38:51.982Z,43.42
2022-08-19T01:42:13.982Z,43.63
2022-08-19T01:45:37.965Z,43.54
2022-08-19T01:48:59.982Z,43.66
2022-08-19T01:52:20.981Z,43.68
2022-08-19T01:55:41.980Z,43.74
2022-08-19T01:59:11.977Z,43.86
2022-08-19T02:02:32.993Z,43.84
2022-08-19T02:05:55.002Z,43.84
2022-08-19T02:09:16.979Z,43.82
2022-08-19T02:12:37.976Z,43.90
2022-08-19T02:15:59.012Z,44.01
2022-08-19T02:19:22.015Z,43.89
2022-08-19T02:22:43.147Z,43.89
2022-08-19T02:26:06.004Z,43.86
2022-08-19T02:29:27.004Z,43.68
2022-08-19T02:32:48.016Z,43.77
2022-08-19T02:36:08.989Z,43.79
2022-08-19T02:39:30.074Z,43.72
2022-08-19T02:42:51.005Z,43.69
2022-08-19T02:46:12.026Z,43.59
2022-08-19T02:49:34.810Z,43.65
2022-08-19T02:52:56.024Z,43.67
2022-08-19T02:56:22.033Z,43.48
2022-08-19T02:59:39.095Z,43.60
2022-08-19T03:02:54.081Z,43.21
2022-08-19T03:06:27.037Z,43.21
2022-08-19T03:09:47.999Z,43.31
2022-08-19T03:13:11.020Z,43.55
2022-08-19T03:16:37.998Z,43.61
2022-08-19T03:19:59.022Z,43.87
2022-08-19T03:23:21.004Z,43.93
2022-08-19T03:26:42.027Z,43.98
2022-08-19T03:30:03.005Z,44.26
2022-08-19T03:33:27.612Z,44.15
2022-08-19T03:36:49.051Z,44.19
2022-08-19T03:40:16.359Z,44.25
2022-08-19T03:43:37.006Z,44.43
2022-08-19T03:46:58.062Z,44.37
2022-08-19T03:50:20.001Z,44.28
2022-08-19T03:53:42.029Z,44.49
2022-08-19T03:57:05.041Z,44.32
2022-08-19T04:00:27.017Z,44.12
2022-08-19T04:03:48.087Z,43.97
2022-08-19T04:07:09.012Z,44.01
2022-08-19T04:10:30.056Z,43.81
2022-08-19T04:13:53.026Z,43.49
2022-08-19T04:17:16.071Z,43.13
2022-08-19T04:20:38.040Z,42.96
2022-08-19T04:23:59.055Z,42.73
2022-08-19T04:27:20.026Z,42.55
2022-08-19T04:30:41.052Z,42.34
2022-08-19T04:34:02.048Z,42.27
2022-08-19T04:37:23.054Z,42.27
2022-08-19T04:41:02.035Z,41.92
2022-08-19T04:44:26.063Z,41.15
2022-08-19T04:47:57.817Z,41.24
2022-08-19T04:51:23.032Z,41.14
2022-08-19T04:54:44.031Z,40.52
2022-08-19T04:58:08.061Z,40.48
2022-08-19T05:01:33.126Z,40.53
2022-08-19T05:04:54.040Z,40.40
2022-08-19T05:08:15.290Z,40.20
2022-08-19T05:11:41.046Z,40.04
2022-08-19T05:15:02.042Z,40.30
2022-08-19T05:18:42.048Z,40.20
2022-08-19T05:22:22.061Z,40.09
2022-08-19T05:25:43.054Z,40.27
2022-08-19T05:29:05.064Z,39.93
2022-08-19T05:32:26.060Z,39.76
2022-08-19T05:35:47.083Z,39.50
2022-08-19T05:39:09.053Z,39.46
2022-08-19T05:42:31.064Z,39.49
2022-08-19T05:45:55.067Z,38.88
2022-08-19T05:49:16.082Z,39.07
2022-08-19T05:52:37.053Z,38.84
2022-08-19T05:55:58.073Z,38.66
2022-08-19T05:59:22.061Z,38.31
2022-08-19T06:02:46.114Z,38.03
2022-08-19T06:06:10.060Z,38.22
2022-08-19T06:09:31.090Z,38.22
2022-08-19T06:12:52.069Z,38.22
2022-08-19T06:16:13.072Z,38.01
2022-08-19T06:19:40.490Z,37.41
2022-08-19T06:23:03.080Z,36.99
2022-08-19T06:26:27.054Z,37.12
2022-08-19T06:29:48.073Z,36.65
2022-08-19T06:33:12.084Z,36.34
2022-08-19T06:36:41.082Z,36.13
2022-08-19T06:40:03.137Z,36.23
2022-08-19T06:43:24.072Z,36.16
2022-08-19T06:46:54.846Z,35.78
2022-08-19T06:50:16.083Z,35.66
2022-08-19T06:53:37.095Z,35.17
2022-08-19T06:56:58.080Z,35.10
2022-08-19T07:00:22.164Z,35.01
2022-08-19T07:03:48.080Z,35.06
2022-08-19T07:07:24.099Z,34.94
2022-08-19T07:10:45.108Z,35.16
2022-08-19T07:14:06.135Z,34.90
2022-08-19T07:17:28.084Z,34.79
2022-08-19T07:20:49.113Z,34.69
2022-08-19T07:24:11.092Z,34.12
2022-08-19T07:27:33.578Z,33.85
2022-08-19T07:30:54.077Z,33.50
2022-08-19T07:34:16.105Z,33.19
2022-08-19T07:37:39.100Z,32.86
2022-08-19T07:41:00.109Z,32.57
2022-08-19T07:44:22.081Z,32.51
2022-08-19T07:47:49.136Z,31.96
2022-08-19T07:51:16.098Z,31.75
2022-08-19T07:54:50.094Z,31.55
2022-08-19T07:58:12.109Z,31.54
2022-08-19T08:01:41.839Z,31.88
2022-08-19T08:05:21.122Z,31.74
2022-08-19T08:09:00.114Z,31.52
2022-08-19T08:12:34.590Z,31.68
2022-08-19T08:15:56.446Z,31.50
2022-08-19T08:19:25.280Z,31.23
2022-08-19T08:22:58.089Z,31.00
2022-08-19T08:26:20.118Z,31.58
2022-08-19T08:29:45.111Z,31.31
2022-08-19T08:33:06.178Z,31.58
2022-08-19T08:36:27.116Z,31.37
2022-08-19T08:39:48.403Z,31.18
2022-08-19T08:43:32.404Z,30.89
2022-08-19T08:47:02.126Z,30.89
2022-08-19T08:50:30.149Z,30.84
2022-08-19T08:53:44.346Z,30.53
2022-08-19T08:57:00.121Z,30.46
2022-08-19T09:00:29.122Z,30.42
2022-08-19T09:03:53.165Z,30.29
2022-08-19T09:07:34.770Z,30.19
2022-08-19T09:11:08.155Z,30.56
2022-08-19T09:15:10.116Z,30.86
2022-08-19T09:18:31.135Z,30.87
2022-08-19T09:21:53.116Z,30.35
2022-08-19T09:25:14.156Z,30.31
2022-08-19T09:28:36.120Z,30.57
2022-08-19T09:32:00.117Z,30.26
2022-08-19T09:35:21.133Z,30.05
2022-08-19T09:39:16.083Z,30.02
2022-08-19T09:42:37.144Z,29.39
2022-08-19T09:45:58.132Z,29.26
2022-08-19T09:49:19.182Z,28.82
2022-08-19T09:52:40.140Z,28.34
2022-08-19T09:56:17.152Z,27.72
2022-08-19T09:59:40.143Z,27.39
2022-08-19T10:03:01.239Z,26.98
2022-08-19T10:06:45.736Z,26.77
2022-08-19T10:10:03.172Z,26.63
2022-08-19T10:13:24.160Z,26.55
2022-08-19T10:16:45.165Z,25.72
2022-08-19T10:20:06.136Z,25.03
2022-08-19T10:23:27.158Z,24.76
2022-08-19T10:26:59.063Z,24.78
2022-08-19T10:30:21.153Z,24.46
2022-08-19T10:33:53.896Z,24.12
2022-08-19T10:37:15.186Z,23.44
2022-08-19T10:40:40.165Z,23.52
2022-08-19T10:44:04.158Z,23.28
2022-08-19T10:47:25.705Z,23.21
2022-08-19T10:51:05.158Z,23.33
2022-08-19T10:54:33.327Z,23.00
2022-08-19T10:58:04.147Z,22.74
2022-08-19T11:01:25.218Z,22.62
2022-08-19T11:04:46.151Z,22.86
2022-08-19T11:08:07.245Z,22.70
2022-08-19T11:11:48.184Z,22.76
2022-08-19T11:15:09.178Z,22.66
2022-08-19T11:18:30.159Z,22.57
2022-08-19T11:21:54.195Z,22.09
2022-08-19T11:25:18.177Z,21.79
2022-08-19T11:28:39.185Z,22.10
2022-08-19T11:32:02.176Z,22.04
2022-08-19T11:35:23.160Z,21.77
2022-08-19T11:38:47.213Z,21.75
2022-08-19T11:42:08.183Z,21.63
2022-08-19T11:45:49.179Z,21.81
2022-08-19T11:49:17.173Z,21.73
2022-08-19T11:52:40.191Z,22.08
2022-08-19T11:56:23.171Z,22.26
2022-08-19T11:59:56.182Z,22.20
2022-08-19T12:03:36.218Z,22.22
2022-08-19T12:06:58.189Z,22.36
2022-08-19T12:10:20.657Z,22.09
2022-08-19T12:18:28.066Z,22.78
2022-08-19T12:21:52.192Z,23.05
2022-08-19T12:25:14.196Z,23.13
2022-08-19T12:28:42.199Z,23.22
2022-08-19T12:32:10.386Z,23.09
2022-08-19T12:36:04.186Z,23.23
2022-08-19T12:39:30.221Z,23.59
2022-08-19T12:42:51.190Z,23.62
2022-08-19T12:46:23.703Z,23.31
2022-08-19T12:49:59.228Z,22.20
2022-08-19T12:53:21.190Z,21.64
2022-08-19T12:57:08.187Z,21.43
2022-08-19T13:00:35.259Z,21.30
2022-08-19T13:04:29.205Z,21.05
2022-08-19T13:07:56.409Z,21.16
2022-08-19T13:11:29.217Z,21.28
2022-08-19T13:15:20.475Z,21.47
2022-08-19T13:19:12.220Z,21.21
2022-08-19T13:26:14.216Z,22.91
2022-08-19T13:34:00.212Z,24.44
2022-08-19T13:37:24.227Z,25.14
2022-08-19T13:44:46.234Z,25.10
2022-08-19T13:48:16.244Z,25.03
2022-08-19T13:52:49.985Z,25.07
2022-08-19T13:55:36.198Z,25.39
2022-08-19T13:59:17.216Z,25.87
2022-08-19T14:02:43.231Z,26.28
2022-08-19T14:06:10.223Z,26.37
2022-08-19T14:09:51.225Z,27.01
2022-08-19T14:13:16.221Z,26.93
2022-08-19T14:17:03.232Z,26.33
2022-08-19T14:25:00.236Z,25.83
2022-08-19T14:28:22.227Z,26.50
2022-08-19T14:31:53.240Z,27.51
2022-08-19T14:36:02.241Z,27.80
2022-08-19T14:39:55.264Z,27.84
2022-08-19T14:43:20.231Z,28.39
2022-08-19T14:50:35.231Z,28.66
2022-08-19T14:53:58.265Z,28.91
2022-08-19T14:57:46.316Z,28.96
2022-08-19T15:01:28.313Z,29.23
2022-08-19T15:04:58.062Z,29.64
2022-08-19T15:08:24.263Z,29.56
2022-08-19T15:11:48.257Z,29.38
2022-08-19T15:15:11.250Z,29.39
2022-08-19T15:18:53.239Z,28.14
2022-08-19T15:22:39.242Z,27.79
2022-08-19T15:26:04.237Z,28.14
2022-08-19T15:29:47.260Z,29.13
2022-08-19T15:33:12.267Z,29.33
2022-08-19T15:36:33.251Z,29.37
2022-08-19T15:39:54.288Z,29.91
2022-08-19T15:43:15.271Z,29.91
2022-08-19T15:46:40.252Z,29.93
2022-08-19T15:50:01.279Z,30.36
2022-08-19T15:53:23.276Z,30.13
2022-08-19T15:57:02.278Z,30.44
2022-08-19T16:00:41.263Z,30.12
2022-08-19T16:04:21.264Z,30.60
2022-08-19T16:07:42.297Z,30.54
2022-08-19T16:11:03.260Z,30.72
2022-08-19T16:14:24.296Z,31.07
2022-08-19T16:17:45.271Z,30.87
2022-08-19T16:21:19.285Z,31.10
2022-08-19T16:24:42.270Z,31.62
2022-08-19T16:28:07.404Z,31.76
2022-08-19T16:31:22.286Z,31.57
2022-08-19T16:34:44.273Z,31.87
2022-08-19T16:38:05.273Z,32.06
2022-08-19T16:41:27.334Z,32.16
2022-08-19T16:44:49.281Z,32.47
2022-08-19T16:48:11.466Z,32.40
2022-08-19T16:51:32.258Z,32.57
2022-08-19T16:54:53.270Z,32.79
2022-08-19T16:58:14.305Z,33.18
2022-08-19T17:01:35.366Z,33.29
2022-08-19T17:04:58.178Z,33.43
2022-08-19T17:08:29.287Z,33.60
2022-08-19T17:11:50.329Z,33.73
2022-08-19T17:15:11.288Z,34.02
2022-08-19T17:18:33.290Z,33.95
2022-08-19T17:21:54.290Z,33.76
2022-08-19T17:25:15.324Z,33.96
2022-08-19T17:28:39.276Z,33.93
2022-08-19T17:32:00.302Z,34.01
2022-08-19T17:35:26.300Z,34.17
2022-08-19T17:38:47.310Z,34.03
2022-08-19T17:42:08.391Z,34.02
2022-08-19T17:45:29.308Z,33.92
2022-08-19T17:48:52.467Z,34.07
2022-08-19T17:52:13.324Z,33.99
2022-08-19T17:55:34.306Z,33.87
2022-08-19T17:59:00.461Z,34.12
2022-08-19T18:02:23.316Z,33.87
2022-08-19T18:05:48.345Z,33.78
2022-08-19T18:09:09.299Z,33.77
2022-08-19T18:12:30.312Z,33.78
2022-08-19T18:15:51.313Z,33.75
2022-08-19T18:19:12.309Z,33.87
2022-08-19T18:22:43.283Z,33.79
2022-08-19T18:26:04.293Z,33.80
2022-08-19T18:29:25.321Z,34.28
2022-08-19T18:32:48.299Z,34.05
2022-08-19T18:36:10.347Z,34.35
2022-08-19T18:39:49.362Z,34.55
2022-08-19T18:43:29.322Z,34.48
2022-08-19T18:47:08.310Z,34.61
2022-08-19T18:50:29.328Z,34.61
2022-08-19T18:53:52.322Z,34.55
2022-08-19T18:57:13.347Z,34.40
2022-08-19T19:00:34.319Z,34.49
2022-08-19T19:03:59.331Z,34.18
2022-08-19T19:07:22.325Z,34.00
2022-08-19T19:10:43.390Z,33.95
2022-08-19T19:14:04.359Z,33.69
2022-08-19T19:17:32.331Z,33.56
2022-08-19T19:20:54.323Z,33.22
2022-08-19T19:24:15.336Z,33.48
2022-08-19T19:27:36.317Z,33.17
2022-08-19T19:30:57.340Z,33.04
2022-08-19T19:34:29.038Z,32.99
2022-08-19T19:37:51.337Z,32.82
2022-08-19T19:41:12.412Z,32.92
2022-08-19T19:44:33.356Z,33.02
2022-08-19T19:47:56.539Z,33.01
2022-08-19T19:51:18.342Z,32.71
2022-08-19T19:54:39.353Z,32.83
2022-08-19T19:58:08.326Z,32.77
2022-08-19T20:01:30.381Z,32.79
2022-08-19T20:04:51.352Z,32.79
2022-08-19T20:08:30.357Z,33.05
2022-08-19T20:11:57.342Z,32.88
2022-08-19T20:15:19.370Z,33.09
2022-08-19T20:18:40.361Z,33.05
2022-08-19T20:22:03.351Z,33.10
2022-08-19T20:25:25.390Z,33.03
2022-08-19T20:28:49.526Z,32.94
2022-08-19T20:32:19.337Z,33.08
2022-08-19T20:35:40.362Z,33.06
2022-08-19T20:39:01.333Z,33.17
2022-08-19T20:42:22.361Z,33.41
2022-08-19T20:45:43.340Z,33.46
2022-08-19T20:49:05.883Z,33.37
2022-08-19T20:52:26.351Z,33.50
2022-08-19T20:55:47.356Z,33.56
2022-08-19T20:59:11.384Z,33.62
2022-08-19T21:02:34.404Z,33.81
2022-08-19T21:05:55.420Z,33.61
2022-08-19T21:09:16.383Z,33.64
2022-08-19T21:12:37.365Z,33.62
2022-08-19T21:15:58.364Z,33.43
2022-08-19T21:19:23.713Z,33.73
2022-08-19T21:22:45.362Z,33.77
2022-08-19T21:26:07.372Z,33.91
2022-08-19T21:29:28.361Z,33.96
2022-08-19T21:32:52.487Z,33.99
2022-08-19T21:36:14.372Z,33.94
2022-08-19T21:39:35.408Z,33.88
2022-08-19T21:42:57.376Z,33.87
2022-08-19T21:46:18.394Z,33.81
2022-08-19T21:49:39.359Z,34.07
2022-08-19T21:53:01.384Z,33.99
2022-08-19T21:56:22.380Z,34.16
2022-08-19T21:59:44.018Z,34.32
2022-08-19T22:03:05.370Z,34.50
2022-08-19T22:06:26.378Z,34.51
2022-08-19T22:09:47.385Z,34.56
2022-08-19T22:13:10.393Z,34.92
2022-08-19T22:16:31.393Z,34.87
2022-08-19T22:19:52.454Z,35.05
2022-08-19T22:23:17.386Z,35.09
2022-08-19T22:26:38.388Z,35.30
2022-08-19T22:29:59.405Z,35.39
2022-08-19T22:33:29.395Z,35.49
2022-08-19T22:36:50.399Z,35.54
2022-08-19T22:40:12.440Z,35.68
2022-08-19T22:43:39.468Z,35.41
2022-08-19T22:47:00.401Z,35.97
2022-08-19T22:50:23.417Z,35.98
2022-08-19T22:53:45.394Z,35.88
2022-08-19T22:57:06.431Z,36.09
2022-08-19T23:00:27.516Z,36.34
2022-08-19T23:03:48.413Z,36.37
2022-08-19T23:07:09.398Z,36.46
2022-08-19T23:10:30.415Z,36.61
2022-08-19T23:13:53.414Z,36.77
2022-08-19T23:17:14.430Z,36.92
2022-08-19T23:20:37.389Z,36.92
2022-08-19T23:23:58.430Z,37.03
2022-08-19T23:27:37.396Z,37.20
2022-08-19T23:31:01.429Z,37.31
2022-08-19T23:34:22.422Z,37.41
2022-08-19T23:37:44.481Z,37.56
2022-08-19T23:41:07.406Z,37.74
2022-08-19T23:44:28.423Z,37.85
2022-08-19T23:47:49.407Z,37.98
2022-08-19T23:51:11.426Z,38.16
2022-08-19T23:54:43.233Z,38.38
2022-08-19T23:58:04.440Z,38.67
